Terminal Aerodrome Forecast
Issued by NWS

Home | Current Version | Previous Version | Text Only | Print | Product List | Glossary On
Versions: 1 2 3 4 5 6 7 8 9 10 11 12 13 14 15 16 17 18 19 20 21 22 23 24 25 26 27 28 29 30 31 32
451
FTUS44 KOUN 291727
TAFPNC
TAF
KPNC 291727Z 2918/3018 21012KT 6SM BR OVC004
     FM292300 23012KT P6SM OVC015
     FM300900 29014KT P6SM BKN014 OVC030
      TEMPO 3009/3012 6SM -RA=

USA.gov is the U.S. government's official web portal to all federal, state and local government web resources and services.